createdAt,value
2023-03-11T00:03:16.040Z,99331.78
2023-03-11T00:06:42.324Z,99331.78
2023-03-11T00:10:04.963Z,99321.63
2023-03-11T00:13:27.522Z,99315.69
2023-03-11T00:16:49.392Z,99312.28
2023-03-11T00:20:18.128Z,99307.25
2023-03-11T00:23:41.358Z,99293.72
2023-03-11T00:27:04.210Z,99299.56
2023-03-11T00:30:27.290Z,99291.97
2023-03-11T00:33:49.227Z,99265.63
2023-03-11T00:37:11.018Z,99268.25
2023-03-11T00:40:37.200Z,99284.31
2023-03-11T00:43:58.978Z,99275.00
2023-03-11T00:47:20.674Z,99269.09
2023-03-11T00:50:42.805Z,99261.50
2023-03-11T00:54:05.245Z,99273.31
2023-03-11T00:57:29.337Z,99251.41
2023-03-11T01:00:51.590Z,99248.88
2023-03-11T01:04:13.937Z,99240.41
2023-03-11T01:07:36.274Z,99248.06
2023-03-11T01:10:58.397Z,99235.47
2023-03-11T01:14:22.357Z,99221.16
2023-03-11T01:17:44.199Z,99222.88
2023-03-11T01:21:06.538Z,99213.66
2023-03-11T01:24:28.566Z,99206.06
2023-03-11T01:27:50.662Z,99199.34
2023-03-11T01:31:14.432Z,99203.63
2023-03-11T01:34:36.393Z,99181.66
2023-03-11T01:37:59.030Z,99195.34
2023-03-11T01:41:21.169Z,99187.84
2023-03-11T01:44:43.238Z,99166.75
2023-03-11T01:48:06.460Z,99177.84
2023-03-11T01:51:32.838Z,99166.06
2023-03-11T01:54:54.958Z,99158.53
2023-03-11T01:58:21.045Z,99158.59
2023-03-11T02:01:50.886Z,99162.09
2023-03-11T02:05:14.315Z,99123.09
2023-03-11T02:08:36.231Z,99159.63
2023-03-11T02:11:59.407Z,99140.19
2023-03-11T02:15:21.687Z,99146.22
2023-03-11T02:18:44.711Z,99125.06
2023-03-11T02:22:09.106Z,99126.84
2023-03-11T02:25:38.527Z,99126.06
2023-03-11T02:29:02.708Z,99126.94
2023-03-11T02:32:25.428Z,99121.03
2023-03-11T02:35:47.343Z,99101.63
2023-03-11T02:39:10.619Z,99105.78
2023-03-11T02:42:34.524Z,99111.78
2023-03-11T02:45:58.415Z,99111.78
2023-03-11T02:49:22.144Z,99105.03
2023-03-11T02:52:44.154Z,99103.34
2023-03-11T02:56:06.606Z,99102.53
2023-03-11T02:59:29.032Z,99094.94
2023-03-11T03:02:52.474Z,99079.72
2023-03-11T03:06:14.666Z,99082.28
2023-03-11T03:09:37.639Z,99078.09
2023-03-11T03:12:59.440Z,99078.94
2023-03-11T03:16:21.164Z,99060.41
2023-03-11T03:19:44.860Z,99057.88
2023-03-11T03:23:06.999Z,99027.41
2023-03-11T03:26:29.435Z,99049.50
2023-03-11T03:29:51.582Z,99041.06
2023-03-11T03:33:13.865Z,99027.59
2023-03-11T03:36:37.414Z,99021.69
2023-03-11T03:39:59.569Z,99003.16
2023-03-11T03:43:21.381Z,99004.00
2023-03-11T03:46:43.650Z,98988.78
2023-03-11T03:50:06.522Z,98980.38
2023-03-11T03:53:29.927Z,98979.56
2023-03-11T03:56:52.136Z,98967.75
2023-03-11T04:00:16.001Z,98965.22
2023-03-11T04:03:39.212Z,98962.72
2023-03-11T04:07:01.002Z,98939.03
2023-03-11T04:10:24.143Z,98943.31
2023-03-11T04:13:46.230Z,98941.59
2023-03-11T04:17:08.212Z,98935.69
2023-03-11T04:20:30.080Z,98926.41
2023-03-11T04:23:51.952Z,98932.34
2023-03-11T04:27:16.807Z,98917.13
2023-03-11T04:30:38.551Z,98917.13
2023-03-11T04:34:01.157Z,98874.84
2023-03-11T04:37:23.419Z,98897.69
2023-03-11T04:40:45.702Z,98881.66
2023-03-11T04:44:08.965Z,98883.34
2023-03-11T04:47:31.067Z,98872.38
2023-03-11T04:50:52.890Z,98869.81
2023-03-11T04:54:16.409Z,98860.50
2023-03-11T04:57:38.730Z,98843.63
2023-03-11T05:01:02.066Z,98843.59
2023-03-11T05:04:24.274Z,98846.97
2023-03-11T05:07:46.707Z,98835.97
2023-03-11T05:11:09.019Z,98835.16
2023-03-11T05:14:30.908Z,98816.53
2023-03-11T05:17:54.453Z,98813.16
2023-03-11T05:21:17.007Z,98804.69
2023-03-11T05:24:39.805Z,98801.28
2023-03-11T05:28:01.595Z,98790.28
2023-03-11T05:31:23.537Z,98786.88
2023-03-11T05:34:46.960Z,98778.41
2023-03-11T05:38:09.033Z,98773.25
2023-03-11T05:41:31.094Z,98766.44
2023-03-11T05:44:52.934Z,98786.75
2023-03-11T05:48:14.984Z,98773.19
2023-03-11T05:51:38.290Z,98762.97
2023-03-11T05:55:00.393Z,98769.72
2023-03-11T05:58:22.153Z,98749.38
2023-03-11T06:01:44.311Z,98742.53
2023-03-11T06:05:08.525Z,98728.91
2023-03-11T06:08:34.516Z,98729.63
2023-03-11T06:11:56.684Z,98734.69
2023-03-11T06:15:18.501Z,98726.97
2023-03-11T06:18:40.101Z,98710.78
2023-03-11T06:22:01.874Z,98728.38
2023-03-11T06:25:25.131Z,98732.56
2023-03-11T06:28:48.253Z,98717.28
2023-03-11T06:32:10.217Z,98710.44
2023-03-11T06:35:32.227Z,98691.00
2023-03-11T06:38:54.643Z,98671.47
2023-03-11T06:42:17.989Z,98687.44
2023-03-11T06:45:40.094Z,98667.13
2023-03-11T06:49:04.910Z,98661.16
2023-03-11T06:52:28.180Z,98661.13
2023-03-11T06:56:00.759Z,98667.13
2023-03-11T06:59:24.230Z,98672.13
2023-03-11T07:02:46.269Z,98667.00
2023-03-11T07:06:12.510Z,98628.84
2023-03-11T07:09:34.234Z,98634.69
2023-03-11T07:12:56.230Z,98647.22
2023-03-11T07:16:21.138Z,98619.22
2023-03-11T07:19:42.864Z,98624.34
2023-03-11T07:23:04.652Z,98619.13
2023-03-11T07:26:27.912Z,98613.22
2023-03-11T07:29:49.866Z,98608.16
2023-03-11T07:33:14.034Z,98591.22
2023-03-11T07:36:35.784Z,98571.53
2023-03-11T07:39:57.681Z,98569.69
2023-03-11T07:43:19.784Z,98561.97
2023-03-11T07:46:42.398Z,98557.59
2023-03-11T07:50:06.044Z,98543.00
2023-03-11T07:53:28.177Z,98545.50
2023-03-11T07:56:50.227Z,98539.44
2023-03-11T08:00:13.237Z,98535.19
2023-03-11T08:03:35.742Z,98527.56
2023-03-11T08:06:58.970Z,98507.22
2023-03-11T08:10:20.986Z,98520.66
2023-03-11T08:13:43.806Z,98515.56
2023-03-11T08:17:05.793Z,98495.19
2023-03-11T08:20:28.305Z,98488.28
2023-03-11T08:23:52.216Z,98487.38
2023-03-11T08:27:14.595Z,98465.53
2023-03-11T08:30:38.051Z,98482.91
2023-03-11T08:34:02.801Z,98478.63
2023-03-11T08:37:25.186Z,98475.94
2023-03-11T08:40:48.983Z,98468.25
2023-03-11T08:44:11.222Z,98467.28
2023-03-11T08:47:36.801Z,98461.41
2023-03-11T08:50:59.049Z,98455.34
2023-03-11T08:54:21.600Z,98452.75
2023-03-11T08:57:45.318Z,98450.00
2023-03-11T09:01:09.312Z,98447.34
2023-03-11T09:04:31.528Z,98442.31
2023-03-11T09:07:53.843Z,98438.03
2023-03-11T09:11:25.588Z,98410.94
2023-03-11T09:14:50.906Z,98415.66
2023-03-11T09:18:14.060Z,98406.34
2023-03-11T09:21:36.456Z,98401.97
2023-03-11T09:24:58.956Z,98406.97
2023-03-11T09:28:20.931Z,98410.34
2023-03-11T09:31:43.953Z,98388.22
2023-03-11T09:35:06.590Z,98375.66
2023-03-11T09:38:28.730Z,98383.09
2023-03-11T09:41:58.684Z,98376.22
2023-03-11T09:45:25.561Z,98371.09
2023-03-11T09:48:54.967Z,98352.41
2023-03-11T09:52:19.232Z,98355.69
2023-03-11T09:55:46.036Z,98320.13
2023-03-11T09:59:16.152Z,98351.16
2023-03-11T10:02:38.927Z,98337.56
2023-03-11T10:06:13.350Z,98342.44
2023-03-11T10:09:39.609Z,98339.13
2023-03-11T10:13:13.341Z,98326.38
2023-03-11T10:16:44.699Z,98321.72
2023-03-11T10:20:16.971Z,98330.84
2023-03-11T10:23:57.139Z,98324.88
2023-03-11T10:27:24.707Z,98311.44
2023-03-11T10:30:50.556Z,98302.69
2023-03-11T10:34:21.897Z,98300.91
2023-03-11T10:37:50.237Z,98287.94
2023-03-11T10:41:20.918Z,98284.31
2023-03-11T10:44:43.902Z,98283.16
2023-03-11T10:48:11.576Z,98271.78
2023-03-11T10:51:36.360Z,98270.91
2023-03-11T10:55:03.107Z,98261.38
2023-03-11T10:58:29.039Z,98254.53
2023-03-11T11:01:56.875Z,98254.69
2023-03-11T11:05:38.073Z,98218.25
2023-03-11T11:09:14.533Z,98210.72
2023-03-11T11:12:36.625Z,98219.38
2023-03-11T11:16:02.446Z,98221.06
2023-03-11T11:19:24.664Z,98218.50
2023-03-11T11:22:52.469Z,98206.03
2023-03-11T11:26:20.758Z,98206.63
2023-03-11T11:29:43.106Z,98202.50
2023-03-11T11:33:13.409Z,98197.47
2023-03-11T11:36:38.931Z,98196.72
2023-03-11T11:40:11.200Z,98178.16
2023-03-11T11:43:42.418Z,98173.28
2023-03-11T11:47:14.294Z,98191.84
2023-03-11T11:50:42.205Z,98177.19
2023-03-11T11:54:18.367Z,98183.97
2023-03-11T11:57:40.808Z,98182.31
2023-03-11T12:01:15.162Z,98182.25
2023-03-11T12:04:51.905Z,98180.44
2023-03-11T12:08:19.498Z,98166.19
2023-03-11T12:11:51.918Z,98162.78
2023-03-11T12:15:20.410Z,98171.03
2023-03-11T12:18:49.187Z,98165.25
2023-03-11T12:22:48.078Z,98161.06
2023-03-11T12:26:17.758Z,98158.44
2023-03-11T12:29:45.918Z,98152.66
2023-03-11T12:33:15.820Z,98158.34
2023-03-11T12:36:40.511Z,98146.22
2023-03-11T12:40:41.274Z,98141.09
2023-03-11T12:44:05.894Z,98138.44
2023-03-11T12:47:29.961Z,98138.47
2023-03-11T12:50:51.639Z,98129.06
2023-03-11T12:54:30.800Z,98123.22
2023-03-11T12:58:01.904Z,98118.09
2023-03-11T13:01:42.514Z,98117.91
2023-03-11T13:05:20.346Z,98116.19
2023-03-11T13:08:48.674Z,98113.56
2023-03-11T13:12:40.240Z,98110.97
2023-03-11T13:16:39.318Z,98104.94
2023-03-11T13:20:01.248Z,98096.56
2023-03-11T13:23:36.069Z,98095.09
2023-03-11T13:27:06.766Z,98069.91
2023-03-11T13:30:35.816Z,98094.28
2023-03-11T13:34:03.645Z,98087.66
2023-03-11T13:37:35.876Z,98080.78
2023-03-11T13:40:59.985Z,98073.88
2023-03-11T13:44:30.623Z,98041.16
2023-03-11T13:47:55.498Z,98073.75
2023-03-11T13:51:21.946Z,98067.09
2023-03-11T13:54:50.003Z,98059.47
2023-03-11T13:58:22.845Z,98025.28
2023-03-11T14:01:50.564Z,98044.56
2023-03-11T14:05:16.851Z,98051.13
2023-03-11T14:08:40.238Z,98052.03
2023-03-11T14:12:07.914Z,98046.84
2023-03-11T14:15:41.641Z,98050.25
2023-03-11T14:19:08.821Z,98038.59
2023-03-11T14:22:30.908Z,98044.03
2023-03-11T14:26:00.571Z,98043.31
2023-03-11T14:29:28.252Z,98041.53
2023-03-11T14:33:00.949Z,98017.34
2023-03-11T14:36:22.869Z,98044.22
2023-03-11T14:39:46.345Z,98034.91
2023-03-11T14:43:13.182Z,98031.56
2023-03-11T14:46:35.116Z,98017.16
2023-03-11T14:50:00.117Z,98018.88
2023-03-11T14:53:27.980Z,98024.00
2023-03-11T14:56:57.586Z,98017.31
2023-03-11T15:00:23.897Z,98018.25
2023-03-11T15:03:50.265Z,98012.44
2023-03-11T15:07:21.148Z,98010.88
2023-03-11T15:11:03.360Z,98008.47
2023-03-11T15:14:26.939Z,98016.16
2023-03-11T15:17:54.317Z,98006.13
2023-03-11T15:21:18.355Z,98003.41
2023-03-11T15:24:41.745Z,97989.06
2023-03-11T15:28:21.357Z,97998.94
2023-03-11T15:31:47.758Z,97982.28
2023-03-11T15:35:19.421Z,97995.66
2023-03-11T15:38:41.193Z,97993.09
2023-03-11T15:42:15.581Z,97996.38
2023-03-11T15:45:38.007Z,97996.44
2023-03-11T15:48:59.765Z,97999.03
2023-03-11T15:52:21.790Z,98001.59
2023-03-11T15:55:43.509Z,98005.81
2023-03-11T15:59:07.102Z,97995.81
2023-03-11T16:02:31.034Z,98010.94
2023-03-11T16:05:52.687Z,98004.19
2023-03-11T16:09:15.080Z,98004.22
2023-03-11T16:12:37.223Z,98008.41
2023-03-11T16:16:01.178Z,98013.47
2023-03-11T16:19:24.052Z,98007.69
2023-03-11T16:22:46.815Z,97978.59
2023-03-11T16:26:11.233Z,98016.41
2023-03-11T16:29:33.662Z,98020.88
2023-03-11T16:32:56.921Z,98020.22
2023-03-11T16:36:19.142Z,98026.13
2023-03-11T16:39:41.754Z,98016.91
2023-03-11T16:43:05.287Z,98026.31
2023-03-11T16:46:28.006Z,98023.84
2023-03-11T16:49:53.613Z,98019.75
2023-03-11T16:53:17.702Z,98026.66
2023-03-11T16:56:41.712Z,98016.63
2023-03-11T17:00:05.621Z,98022.72
2023-03-11T17:03:31.566Z,98034.72
2023-03-11T17:06:57.744Z,98040.16
2023-03-11T17:10:19.990Z,98047.13
2023-03-11T17:13:41.732Z,98012.13
2023-03-11T17:17:03.764Z,98032.91
2023-03-11T17:20:25.736Z,98039.03
2023-03-11T17:23:48.894Z,98034.97
2023-03-11T17:27:10.976Z,98025.75
2023-03-11T17:30:37.292Z,98039.53
2023-03-11T17:34:00.277Z,98034.59
2023-03-11T17:37:22.424Z,98036.53
2023-03-11T17:40:45.574Z,98042.53
2023-03-11T17:44:07.949Z,98047.81
2023-03-11T17:47:29.960Z,98047.19
2023-03-11T17:50:51.642Z,98046.22
2023-03-11T17:54:13.340Z,98061.31
2023-03-11T17:57:45.125Z,98050.28
2023-03-11T18:01:08.861Z,98064.69
2023-03-11T18:04:30.898Z,98057.94
2023-03-11T18:07:52.767Z,98055.38
2023-03-11T18:11:18.745Z,98050.38
2023-03-11T18:14:42.531Z,98063.78
2023-03-11T18:18:04.730Z,98057.19
2023-03-11T18:21:28.742Z,98071.50
2023-03-11T18:24:50.572Z,98072.31
2023-03-11T18:28:12.267Z,98079.13
2023-03-11T18:31:35.532Z,98074.09
2023-03-11T18:34:57.193Z,98059.03
2023-03-11T18:38:18.913Z,98044.72
2023-03-11T18:41:42.321Z,98070.81
2023-03-11T18:45:04.217Z,98060.69
2023-03-11T18:48:27.628Z,98060.78
2023-03-11T18:51:49.368Z,98064.19
2023-03-11T18:55:11.537Z,98063.31
2023-03-11T18:58:33.709Z,98053.28
2023-03-11T19:01:55.456Z,98076.88
2023-03-11T19:05:18.826Z,98084.56
2023-03-11T19:08:41.407Z,98080.31
2023-03-11T19:12:03.205Z,98093.03
2023-03-11T19:15:24.890Z,98097.34
2023-03-11T19:18:47.168Z,98092.34
2023-03-11T19:22:10.625Z,98088.03
2023-03-11T19:25:33.190Z,98089.59
2023-03-11T19:28:55.046Z,98094.69
2023-03-11T19:32:17.422Z,98088.06
2023-03-11T19:35:39.359Z,98099.84
2023-03-11T19:39:02.509Z,98114.03
2023-03-11T19:42:24.581Z,98110.44
2023-03-11T19:45:51.567Z,98109.53
2023-03-11T19:49:13.369Z,98112.75
2023-03-11T19:52:36.239Z,98099.25
2023-03-11T19:56:00.316Z,98101.66
2023-03-11T19:59:22.320Z,98098.25
2023-03-11T20:02:44.767Z,98107.47
2023-03-11T20:06:07.725Z,98105.69
2023-03-11T20:09:29.644Z,98098.28
2023-03-11T20:13:02.207Z,98091.59
2023-03-11T20:16:24.760Z,98106.66
2023-03-11T20:19:46.687Z,98109.97
2023-03-11T20:23:08.559Z,98109.91
2023-03-11T20:26:30.021Z,98110.72
2023-03-11T20:29:53.585Z,98110.78
2023-03-11T20:33:15.358Z,98110.78
2023-03-11T20:36:37.355Z,98115.88
2023-03-11T20:39:59.208Z,98121.72
2023-03-11T20:43:21.054Z,98112.38
2023-03-11T20:46:44.603Z,98112.38
2023-03-11T20:50:07.828Z,98111.53
2023-03-11T20:53:30.660Z,98112.38
2023-03-11T20:56:52.441Z,98104.78
2023-03-11T21:00:16.262Z,98106.47
2023-03-11T21:03:40.040Z,98099.78
2023-03-11T21:07:02.808Z,98090.69
2023-03-11T21:10:25.197Z,98095.72
2023-03-11T21:13:47.344Z,98103.19
2023-03-11T21:17:09.376Z,98105.75
2023-03-11T21:20:32.713Z,98095.72
2023-03-11T21:23:55.606Z,98104.94
2023-03-11T21:27:17.868Z,98099.97
2023-03-11T21:30:39.679Z,98114.38
2023-03-11T21:34:03.224Z,98095.91
2023-03-11T21:37:27.336Z,98110.31
2023-03-11T21:40:49.603Z,98104.47
2023-03-11T21:44:12.576Z,98113.88
2023-03-11T21:47:34.793Z,98110.59
2023-03-11T21:50:56.835Z,98112.50
2023-03-11T21:54:20.363Z,98122.63
2023-03-11T21:57:42.307Z,98114.28
2023-03-11T22:01:04.716Z,98106.03
2023-03-11T22:04:27.102Z,98117.06
2023-03-11T22:07:49.176Z,98122.06
2023-03-11T22:11:17.969Z,98126.31
2023-03-11T22:14:39.698Z,98130.56
2023-03-11T22:18:01.391Z,98133.91
2023-03-11T22:21:23.251Z,98091.97
2023-03-11T22:24:44.854Z,98127.97
2023-03-11T22:28:10.451Z,98120.41
2023-03-11T22:31:32.355Z,98132.06
2023-03-11T22:34:53.995Z,98131.97
2023-03-11T22:38:15.888Z,98126.13
2023-03-11T22:41:38.974Z,98133.72
2023-03-11T22:45:02.616Z,98139.50
2023-03-11T22:48:24.678Z,98137.81
2023-03-11T22:51:47.431Z,98135.22
2023-03-11T22:55:09.872Z,98141.88
2023-03-11T22:58:31.601Z,98139.28
2023-03-11T23:01:54.803Z,98138.34
2023-03-11T23:05:17.513Z,98146.72
2023-03-11T23:08:39.383Z,98143.31
2023-03-11T23:12:03.956Z,98129.09
2023-03-11T23:15:25.819Z,98146.72
2023-03-11T23:18:51.511Z,98153.41
2023-03-11T23:22:13.709Z,98150.88
2023-03-11T23:25:36.715Z,98151.75
2023-03-11T23:28:58.710Z,98159.25
2023-03-11T23:32:20.599Z,98156.56
2023-03-11T23:35:44.089Z,98163.31
2023-03-11T23:39:06.265Z,98162.50
2023-03-11T23:42:28.320Z,98160.69
2023-03-11T23:45:50.547Z,98165.63
2023-03-11T23:49:12.287Z,98162.38
2023-03-11T23:52:35.730Z,98161.41
2023-03-11T23:55:57.747Z,98171.34
2023-03-11T23:59:19.697Z,98158.75
